Greifswald — 3FEC8 — position and weather

sailwx.info

Track history (hours):
 
Tides and Currents Weather Stations Pressure Air Temp Water Temp Dewpoint Dewpoint Depression Visibility Wind Speed Wind Dir Waves Ship Positions

Greifswald

Last reported at 2015-Apr-19 10:18 UTC. Time now 2015-Apr-19 17:34 UTC.
Position N 41°20' E 029°14'.

Length 191 m; draft 6.1 m.

Type: Ship. MMSI: 370492000.

Date/timePositionNaut miles runAvg speedWind from/ knotsBaromVisibWave heightAir tempDewpointWater temp
2015-Apr-19 10:18N 41°20' E 029°14'2112.1
2015-Apr-19 08:32N 41°01' E 028°60'1 0.1
2015-Apr-19 00:13N 41°00' E 028°60'4 6.2
2015-Apr-18 23:33N 40°57' E 028°56'  
2015-Apr-15 18:34N 41°18' E 029°08'1313.4
2015-Apr-15 17:33N 41°31' E 029°11'1513.7
2015-Apr-15 16:26N 41°46' E 029°16'2612.9
2015-Apr-15 14:27N 42°11' E 029°24'  
2015-Apr-12 17:05N 41°15' E 029°08'816.0
2015-Apr-12 16:33N 41°23' E 029°10'1110.9
2015-Apr-12 15:34N 41°34' E 029°13'1111.4
2015-Apr-12 14:33N 41°45' E 029°17'1211.6
2015-Apr-12 13:34N 41°56' E 029°21'1211.5
2015-Apr-12 12:34N 42°07' E 029°25'1111.2
2015-Apr-12 11:33N 42°18' E 029°29'2611.1
2015-Apr-12 09:11N 42°44' E 029°38'49 1.2
2015-Apr-10 16:06N 41°56' E 029°26'915.6
2015-Apr-10 15:32N 41°47' E 029°23'3014.9
2015-Apr-10 13:33N 41°19' E 029°13'20 2.8
2015-Apr-10 06:22N 41°01' E 029°00'1 0.9
2015-Apr-10 05:31N 41°00' E 028°60'7 6.9
2015-Apr-10 04:33N 40°53' E 029°00'7 6.2
2015-Apr-10 03:28N 40°47' E 028°58'2 1.7
2015-Apr-10 02:21N 40°49' E 028°57'1 1.2
2015-Apr-10 01:27N 40°49' E 028°58'1 0.8
2015-Apr-10 00:23N 40°50' E 028°59'1 1.1
2015-Apr-09 23:29N 40°50' E 029°00'2 2.0
2015-Apr-09 22:33N 40°49' E 028°58'1 1.3
2015-Apr-09 21:33N 40°49' E 028°57'2 1.9
2015-Apr-09 20:33N 40°47' E 028°55'2 1.9
2015-Apr-09 19:33N 40°49' E 028°57'8 7.9
2015-Apr-09 18:33N 40°57' E 028°56'3 2.8
2015-Apr-09 17:31N 40°59' E 028°58'2 2.4
2015-Apr-09 16:31N 41°01' E 029°00'0 0.0
2015-Apr-09 15:32N 41°01' E 029°00'  
Track history (hours):
 
Tides and Currents Weather Stations Pressure Air Temp Water Temp Dewpoint Dewpoint Depression Visibility Wind Speed Wind Dir Waves Ship Positions

Greifswald

Last reported at 2015-Apr-19 10:18 UTC. Time now 2015-Apr-19 17:34 UTC.
Position N 41°20' E 029°14'.

Length 191 m; draft 6.1 m.

Type: Ship. MMSI: 370492000.

Date/timePositionNaut miles runAvg speedWind from/ knotsBaromVisibWave heightAir tempDewpointWater temp
2015-Apr-19 10:18N 41°20' E 029°14'2112.1
2015-Apr-19 08:32N 41°01' E 028°60'1 0.1
2015-Apr-19 00:13N 41°00' E 028°60'4 6.2
2015-Apr-18 23:33N 40°57' E 028°56'  
2015-Apr-15 18:34N 41°18' E 029°08'1313.4
2015-Apr-15 17:33N 41°31' E 029°11'1513.7
2015-Apr-15 16:26N 41°46' E 029°16'2612.9
2015-Apr-15 14:27N 42°11' E 029°24'  
2015-Apr-12 17:05N 41°15' E 029°08'816.0
2015-Apr-12 16:33N 41°23' E 029°10'1110.9
2015-Apr-12 15:34N 41°34' E 029°13'1111.4
2015-Apr-12 14:33N 41°45' E 029°17'1211.6
2015-Apr-12 13:34N 41°56' E 029°21'1211.5
2015-Apr-12 12:34N 42°07' E 029°25'1111.2
2015-Apr-12 11:33N 42°18' E 029°29'2611.1
2015-Apr-12 09:11N 42°44' E 029°38'49 1.2
2015-Apr-10 16:06N 41°56' E 029°26'915.6
2015-Apr-10 15:32N 41°47' E 029°23'3014.9
2015-Apr-10 13:33N 41°19' E 029°13'20 2.8
2015-Apr-10 06:22N 41°01' E 029°00'1 0.9
2015-Apr-10 05:31N 41°00' E 028°60'7 6.9
2015-Apr-10 04:33N 40°53' E 029°00'7 6.2
2015-Apr-10 03:28N 40°47' E 028°58'2 1.7
2015-Apr-10 02:21N 40°49' E 028°57'1 1.2
2015-Apr-10 01:27N 40°49' E 028°58'1 0.8
2015-Apr-10 00:23N 40°50' E 028°59'1 1.1
2015-Apr-09 23:29N 40°50' E 029°00'2 2.0
2015-Apr-09 22:33N 40°49' E 028°58'1 1.3
2015-Apr-09 21:33N 40°49' E 028°57'2 1.9
2015-Apr-09 20:33N 40°47' E 028°55'2 1.9
2015-Apr-09 19:33N 40°49' E 028°57'8 7.9
2015-Apr-09 18:33N 40°57' E 028°56'3 2.8
2015-Apr-09 17:31N 40°59' E 028°58'2 2.4
2015-Apr-09 16:31N 41°01' E 029°00'0 0.0
2015-Apr-09 15:32N 41°01' E 029°00'  

Dump ship's entire track history